Time;durP1;ratioP1;P1;durP2;ratioP2;P2;SDS_P1;SDS_P2;PMS_P1;PMS_P2;Temp;Humidity;BMP_temperature;BMP_pressure;BME280_temperature;BME280_humidity;BME280_pressure;Samples;Min_cycle;Max_cycle;Signal;HPM_P1;HPM_P2
2021/04/19 00:00:48;;;;;;;15.03;13.50;;;5.60;99.90;;;6.40;78.37;98134.81;5207504;28;20705;-58
2021/04/19 00:03:20;;;;;;;14.80;13.27;;;5.50;99.90;;;6.44;78.02;98141.00;5211302;28;20204;-59
2021/04/19 00:05:52;;;;;;;14.47;12.97;;;5.50;99.90;;;6.43;78.19;98139.25;5211552;28;20218;-56
2021/04/19 00:08:25;;;;;;;15.43;13.83;;;5.50;99.90;;;6.41;78.32;98135.69;5220294;28;20280;-59
2021/04/19 00:10:58;;;;;;;14.90;13.50;;;5.50;99.90;;;6.44;79.01;98141.00;5216864;28;20224;-57
2021/04/19 00:13:30;;;;;;;15.70;14.10;;;5.50;99.90;;;6.42;78.54;98140.03;5219511;28;20291;-59
2021/04/19 00:16:03;;;;;;;14.47;12.97;;;5.50;99.90;;;6.40;78.37;98139.03;5212426;28;20651;-58
2021/04/19 00:18:35;;;;;;;14.53;13.13;;;5.50;99.90;;;6.39;79.15;98138.13;5207040;28;20213;-57
2021/04/19 00:21:08;;;;;;;14.10;12.60;;;5.40;99.90;;;6.38;78.81;98131.31;5213941;28;20189;-57
2021/04/19 00:23:41;;;;;;;13.83;12.40;;;5.40;99.90;;;6.34;79.03;98124.19;5225808;28;20492;-56
2021/04/19 00:26:13;;;;;;;13.80;12.40;;;5.40;99.90;;;6.34;78.75;98123.31;5218473;28;20768;-57
2021/04/19 00:28:46;;;;;;;17.87;14.77;;;5.40;99.90;;;6.36;78.78;98129.41;5214628;28;20233;-58
2021/04/19 00:31:18;;;;;;;14.40;12.90;;;5.40;99.90;;;6.32;79.15;98123.19;5222604;28;20217;-59
2021/04/19 00:33:50;;;;;;;14.83;13.33;;;5.40;99.90;;;6.35;79.30;98125.06;5225263;28;20239;-56
2021/04/19 00:36:22;;;;;;;14.10;12.80;;;5.40;99.90;;;6.30;79.20;98120.53;5226993;28;20221;-57
2021/04/19 00:38:54;;;;;;;15.03;13.53;;;5.40;99.90;;;6.30;79.06;98120.53;5210795;28;20207;-59
2021/04/19 00:41:28;;;;;;;16.40;14.70;;;5.40;99.90;;;6.28;78.67;98117.00;5208891;28;20289;-58
2021/04/19 00:44:00;;;;;;;15.37;13.83;;;5.40;99.90;;;6.25;78.60;98116.75;5210668;28;20209;-61
2021/04/19 00:46:32;;;;;;;15.40;13.90;;;5.30;99.90;;;6.26;78.98;98110.03;5206650;28;20319;-64
2021/04/19 00:49:05;;;;;;;15.47;14.00;;;5.30;99.90;;;6.21;78.54;98112.22;5207612;28;20240;-57
2021/04/19 00:51:38;;;;;;;15.87;14.20;;;5.30;99.90;;;6.16;78.83;98116.06;5208148;28;20725;-58
2021/04/19 00:54:12;;;;;;;15.17;13.70;;;5.30;99.90;;;6.15;78.65;98110.84;5226016;28;20296;-57
2021/04/19 00:56:47;;;;;;;15.03;13.57;;;5.20;99.90;;;6.14;78.81;98109.97;5217471;28;20787;-60
2021/04/19 00:59:20;;;;;;;16.00;14.37;;;5.20;99.90;;;6.19;79.24;98103.59;5213424;28;20577;-60
2021/04/19 01:01:53;;;;;;;15.50;13.90;;;5.20;99.90;;;6.17;79.14;98105.13;5216758;28;20196;-63
2021/04/19 01:04:25;;;;;;;15.80;14.27;;;5.20;99.90;;;6.16;78.79;98108.44;5225475;28;20248;-60
2021/04/19 01:07:00;;;;;;;16.27;14.67;;;5.20;99.90;;;6.04;78.78;98102.41;5225729;28;20303;-59
2021/04/19 01:09:32;;;;;;;15.30;13.80;;;5.10;99.90;;;5.96;79.28;98108.53;5226484;28;20205;-62
2021/04/19 01:12:07;;;;;;;16.00;14.37;;;5.00;99.90;;;5.94;79.72;98108.41;5218926;28;20225;-62
2021/04/19 01:14:39;;;;;;;16.50;14.80;;;5.00;99.90;;;5.87;79.31;98107.00;5214311;28;20228;-60
2021/04/19 01:17:11;;;;;;;16.37;14.77;;;4.90;99.90;;;5.82;79.65;98099.81;5215346;28;20779;-59
2021/04/19 01:19:44;;;;;;;15.67;14.07;;;4.90;99.90;;;5.73;79.88;98099.97;5226521;28;20200;-59
2021/04/19 01:22:17;;;;;;;16.70;14.93;;;4.90;99.90;;;5.75;79.93;98103.50;5217340;28;20240;-61
2021/04/19 01:24:49;;;;;;;16.90;15.10;;;4.80;99.90;;;5.65;79.85;98111.13;5206222;28;20729;-59
2021/04/19 01:27:21;;;;;;;15.40;13.90;;;4.70;99.90;;;5.62;79.77;98106.69;5207370;28;20218;-60
2021/04/19 01:29:53;;;;;;;15.70;14.10;;;4.60;99.90;;;5.62;80.08;98100.75;5206962;28;20224;-60
2021/04/19 01:32:25;;;;;;;16.07;14.47;;;4.70;99.90;;;5.59;79.88;98100.50;5206447;28;20236;-60
2021/04/19 01:34:58;;;;;;;17.13;15.33;;;4.70;99.90;;;5.57;80.18;98096.97;5206149;28;20205;-61
2021/04/19 01:37:31;;;;;;;16.70;15.00;;;4.60;99.90;;;5.53;80.09;98102.56;5221204;28;20331;-62
2021/04/19 01:40:11;;;;;;;16.87;15.20;;;4.60;99.90;;;5.45;80.39;98106.13;5206258;28;20186;-61
2021/04/19 01:42:43;;;;;;;17.30;15.60;;;4.50;99.90;;;5.34;80.43;98102.72;5205527;28;20202;-62
2021/04/19 01:45:17;;;;;;;17.90;16.10;;;4.40;99.90;;;5.29;80.20;98107.41;5221999;28;20292;-59
2021/04/19 01:47:50;;;;;;;16.70;15.00;;;4.40;99.90;;;5.21;80.64;98105.91;5218788;28;20222;-60
2021/04/19 01:50:27;;;;;;;16.33;14.73;;;4.30;99.90;;;5.26;80.63;98106.28;5225295;28;20268;-60
2021/04/19 01:53:00;;;;;;;17.63;15.83;;;4.40;99.90;;;5.22;80.38;98105.13;5223576;28;20286;-60
2021/04/19 01:55:35;;;;;;;17.77;15.80;;;4.30;99.90;;;5.22;80.49;98104.25;5224005;28;20296;-59
2021/04/19 01:58:11;;;;;;;17.97;15.90;;;4.30;99.90;;;5.18;80.42;98105.66;5206679;28;20286;-60
2021/04/19 02:00:49;;;;;;;18.40;16.50;;;4.20;99.90;;;5.11;80.33;98100.84;5214839;28;20284;-59
2021/04/19 02:03:40;;;;;;;17.73;15.57;;;4.10;99.90;;;5.19;80.12;98099.81;5214743;28;20701;-58
2021/04/19 02:06:25;;;;;;;19.13;16.30;;;4.10;99.90;;;5.14;79.96;98101.09;5219418;28;20691;-56
2021/04/19 02:09:07;;;;;;;18.23;15.73;;;4.10;99.90;;;5.10;80.04;98101.63;5205541;28;20204;-59
2021/04/19 02:11:52;;;;;;;18.07;16.17;;;4.10;99.90;;;5.06;79.99;98102.09;5213719;28;20221;-58
2021/04/19 02:14:35;;;;;;;20.13;18.10;;;4.10;99.90;;;5.09;79.81;98089.69;5214931;28;20193;-56
2021/04/19 02:17:22;;;;;;;19.30;17.27;;;4.10;99.90;;;5.09;79.61;98099.81;5212637;28;20266;-58
2021/04/19 02:20:08;;;;;;;19.80;17.87;;;4.10;99.90;;;4.96;80.09;98093.75;5219036;28;20198;-60
2021/04/19 02:22:44;;;;;;;20.33;18.10;;;4.10;99.90;;;4.94;80.26;98095.28;5219032;28;20215;-61
2021/04/19 02:25:22;;;;;;;19.10;17.30;;;4.00;99.90;;;4.97;80.12;98094.63;5205423;28;20463;-62
2021/04/19 02:27:59;;;;;;;17.80;16.00;;;3.90;99.90;;;4.93;79.95;98101.09;5208433;28;20437;-60
2021/04/19 02:30:35;;;;;;;17.80;16.03;;;3.90;99.90;;;4.87;80.09;98098.06;5208751;28;20250;-61
2021/04/19 02:33:14;;;;;;;16.63;15.03;;;3.90;99.90;;;4.70;80.13;98101.75;5206484;28;20740;-56
2021/04/19 02:35:48;;;;;;;18.20;16.30;;;3.70;99.90;;;4.74;79.98;98100.34;5208150;28;20216;-60
2021/04/19 02:38:28;;;;;;;18.40;16.60;;;3.80;99.90;;;4.67;80.11;98103.13;5217053;28;20236;-57
2021/04/19 02:41:06;;;;;;;18.77;16.77;;;3.80;99.90;;;4.64;80.32;98093.63;5206141;28;20290;-58
2021/04/19 02:43:40;;;;;;;20.40;17.90;;;3.70;99.90;;;4.68;80.36;98089.72;5223611;28;20225;-55
2021/04/19 02:46:14;;;;;;;19.67;17.77;;;3.70;99.90;;;4.73;80.85;98093.50;5217693;28;20309;-60
2021/04/19 02:48:46;;;;;;;20.03;17.93;;;3.80;99.90;;;4.73;81.04;98091.88;5206075;28;20667;-60
2021/04/19 02:51:19;;;;;;;20.50;17.67;;;3.90;99.90;;;4.75;81.16;98094.53;5219696;28;20657;-60
2021/04/19 02:53:52;;;;;;;19.57;17.57;;;3.90;99.90;;;4.83;81.05;98088.44;5228943;28;20204;-60
2021/04/19 02:56:27;;;;;;;21.20;18.63;;;3.90;99.90;;;4.91;80.95;98086.53;5221981;28;20250;-61
2021/04/19 02:59:04;;;;;;;20.17;18.07;;;4.00;99.90;;;4.88;80.45;98096.41;5213871;28;20264;-60
2021/04/19 03:01:40;;;;;;;18.83;16.90;;;3.90;99.90;;;4.90;79.03;98090.72;5210321;28;20577;-60
2021/04/19 03:04:15;;;;;;;18.33;16.40;;;3.80;99.90;;;4.83;79.71;98085.91;5221455;28;20203;-61
2021/04/19 03:06:51;;;;;;;18.37;16.47;;;3.80;99.90;;;4.77;79.81;98087.06;5217169;28;20218;-63
2021/04/19 03:09:26;;;;;;;19.03;17.17;;;3.80;99.90;;;4.75;80.85;98086.94;5228740;28;20278;-63
2021/04/19 03:12:03;;;;;;;19.23;17.23;;;3.80;99.90;;;4.74;80.63;98085.16;5228912;28;20317;-63
2021/04/19 03:14:39;;;;;;;19.57;17.47;;;3.80;99.90;;;4.77;80.67;98089.59;5219857;28;20673;-60
2021/04/19 03:17:15;;;;;;;22.60;17.57;;;3.90;99.90;;;4.79;80.79;98083.88;5216389;28;20254;-61
2021/04/19 03:19:53;;;;;;;20.17;18.17;;;3.90;99.90;;;4.83;80.30;98079.97;5208568;28;20255;-61
2021/04/19 03:22:27;;;;;;;20.50;18.37;;;3.90;99.90;;;4.83;79.85;98077.44;5214232;28;20197;-63
2021/04/19 03:25:01;;;;;;;19.57;17.43;;;3.80;99.90;;;4.74;80.05;98080.09;5217698;28;20290;-63
2021/04/19 03:27:35;;;;;;;19.30;17.23;;;3.80;99.90;;;4.64;80.41;98082.63;5209198;28;20667;-63
2021/04/19 03:30:10;;;;;;;20.37;18.27;;;3.80;99.90;;;4.68;80.92;98074.53;5219223;28;20215;-63
2021/04/19 03:32:47;;;;;;;20.63;18.43;;;3.80;99.90;;;4.72;81.04;98076.53;5228059;28;20207;-62
2021/04/19 03:35:25;;;;;;;21.57;19.37;;;3.90;99.90;;;4.77;81.21;98085.41;5228430;28;20618;-63
2021/04/19 03:38:00;;;;;;;22.27;20.07;;;4.00;99.90;;;4.80;81.45;98087.31;5216662;28;20327;-62
2021/04/19 03:40:34;;;;;;;22.60;20.50;;;4.00;99.90;;;4.84;81.30;98087.69;5209725;28;20297;-61
2021/04/19 03:43:10;;;;;;;19.47;17.47;;;4.00;99.90;;;4.96;79.64;98081.09;5226765;28;20198;-62
2021/04/19 03:45:46;;;;;;;20.27;18.27;;;3.90;99.90;;;4.85;79.38;98084.38;5219528;28;20639;-63
2021/04/19 03:48:21;;;;;;;18.70;16.87;;;3.80;99.90;;;4.71;80.10;98084.91;5214984;28;20212;-63
2021/04/19 03:50:57;;;;;;;17.33;15.73;;;3.80;99.90;;;4.64;80.27;98075.03;5209273;28;20723;-61
2021/04/19 03:53:31;;;;;;;19.20;17.13;;;3.70;99.90;;;4.63;80.61;98080.84;5209137;28;20204;-63
2021/04/19 03:56:06;;;;;;;18.13;16.30;;;3.70;99.90;;;4.44;80.63;98081.84;5213248;28;20247;-62
2021/04/19 03:58:39;;;;;;;17.43;15.73;;;3.60;99.90;;;4.46;81.32;98082.88;5225553;28;20287;-62
2021/04/19 04:01:13;;;;;;;18.77;16.40;;;3.60;99.90;;;4.56;81.20;98084.50;5212581;28;20197;-62
2021/04/19 04:03:48;;;;;;;17.30;15.50;;;3.70;99.90;;;4.55;80.78;98081.84;5224322;28;20204;-62
2021/04/19 04:06:22;;;;;;;19.20;17.20;;;3.70;99.90;;;4.49;81.66;98078.06;5212078;28;20610;-62
2021/04/19 04:08:55;;;;;;;18.93;16.97;;;3.70;99.90;;;4.52;81.56;98077.41;5207907;28;20228;-62
2021/04/19 04:11:28;;;;;;;19.80;17.70;;;3.70;99.90;;;4.59;81.75;98084.75;5207562;28;20313;-60
2021/04/19 04:14:03;;;;;;;21.77;18.33;;;3.80;99.90;;;4.69;81.70;98077.19;5217227;28;20297;-63
2021/04/19 04:16:40;;;;;;;19.70;17.70;;;3.90;99.90;;;4.74;81.51;98080.09;5216877;28;20304;-62
2021/04/19 04:19:13;;;;;;;19.70;17.70;;;3.90;99.90;;;4.84;81.21;98082.63;5207966;28;20209;-62
2021/04/19 04:21:45;;;;;;;20.63;18.60;;;4.00;99.90;;;4.88;80.63;98076.16;5209315;28;20279;-63
2021/04/19 04:24:20;;;;;;;21.83;19.53;;;3.90;99.90;;;4.70;80.46;98084.00;5214851;28;20309;-62
2021/04/19 04:26:52;;;;;;;22.27;19.87;;;3.80;99.90;;;4.63;80.77;98085.91;5211737;28;20252;-62
2021/04/19 04:29:26;;;;;;;21.27;19.07;;;3.70;99.90;;;4.58;81.28;98087.16;5219751;28;20197;-61
2021/04/19 04:31:58;;;;;;;20.50;18.40;;;3.70;99.90;;;4.55;81.62;98091.97;5225308;28;20212;-60
2021/04/19 04:34:30;;;;;;;22.00;18.93;;;3.70;99.90;;;4.56;81.60;98081.09;5232458;28;20205;-62
2021/04/19 04:37:03;;;;;;;21.07;18.77;;;3.70;99.90;;;4.61;81.58;98095.03;5207369;28;20306;-62
2021/04/19 04:39:35;;;;;;;20.13;18.03;;;3.70;99.90;;;4.62;81.60;98084.13;5217453;28;20194;-62
2021/04/19 04:42:13;;;;;;;19.33;17.53;;;3.70;99.90;;;4.62;81.84;98079.06;5221598;28;20195;-60
2021/04/19 04:44:48;;;;;;;20.60;18.50;;;3.80;99.90;;;4.68;82.03;98084.66;5225325;28;20201;-62
2021/04/19 04:47:31;;;;;;;20.37;18.23;;;3.80;99.90;;;4.74;82.06;98085.16;5214322;28;20309;-60
2021/04/19 04:50:10;;;;;;;21.10;19.00;;;3.90;99.90;;;4.79;81.48;98086.44;5208577;28;20645;-63
2021/04/19 04:52:49;;;;;;;21.07;18.87;;;3.90;99.90;;;4.91;80.96;98077.28;5209657;28;20217;-59
2021/04/19 04:55:23;;;;;;;20.63;18.47;;;3.90;99.90;;;4.92;81.20;98086.69;5207709;28;20316;-61
2021/04/19 04:57:55;;;;;;;21.00;18.90;;;4.00;99.90;;;4.86;81.28;98086.16;5209047;28;20225;-61
2021/04/19 05:00:29;;;;;;;21.00;18.80;;;3.90;99.90;;;4.81;81.38;98084.91;5216217;28;20225;-61
2021/04/19 05:03:04;;;;;;;21.00;18.90;;;3.90;99.90;;;4.79;81.68;98080.47;5213690;28;20193;-61
2021/04/19 05:05:37;;;;;;;20.60;18.70;;;3.90;99.90;;;4.84;81.41;98081.75;5214315;28;20670;-61
2021/04/19 05:08:11;;;;;;;21.27;18.90;;;3.90;99.90;;;4.86;81.35;98086.16;5224280;28;20586;-61
2021/04/19 05:10:44;;;;;;;22.50;20.10;;;3.90;99.90;;;4.88;81.33;98087.19;5220132;28;20217;-61
2021/04/19 05:13:17;;;;;;;22.57;18.73;;;3.90;99.90;;;4.89;81.27;98086.44;5206845;28;20212;-61
2021/04/19 05:15:51;;;;;;;22.30;19.57;;;3.90;99.90;;;4.88;81.34;98086.28;5221102;28;20313;-60
2021/04/19 05:18:23;;;;;;;21.77;19.47;;;3.90;99.90;;;4.87;81.53;98093.00;5219815;28;20867;-60
2021/04/19 05:20:56;;;;;;;20.13;18.03;;;3.90;99.90;;;4.92;80.70;98091.75;5220253;28;20633;-63
2021/04/19 05:23:28;;;;;;;21.07;18.97;;;3.90;99.90;;;4.93;80.96;98088.44;5227000;28;20201;-63
2021/04/19 05:26:03;;;;;;;20.17;18.00;;;3.90;99.90;;;5.00;80.88;98088.94;5226271;28;20287;-63
2021/04/19 05:28:36;;;;;;;21.03;19.03;;;4.00;99.90;;;5.03;80.99;98091.72;5226736;28;20288;-63
2021/04/19 05:31:10;;;;;;;22.73;19.83;;;4.10;99.90;;;5.06;80.95;98091.97;5224549;28;20220;-61
2021/04/19 05:33:43;;;;;;;21.83;19.20;;;4.10;99.90;;;5.10;80.46;98091.47;5240441;28;20649;-62
2021/04/19 05:36:16;;;;;;;20.83;18.70;;;4.20;99.90;;;5.06;80.68;98089.44;5227587;28;20593;-60
2021/04/19 05:38:48;;;;;;;23.53;20.27;;;4.20;99.90;;;5.05;80.29;98097.81;5214778;28;20672;-59
2021/04/19 05:41:22;;;;;;;21.37;19.10;;;4.10;99.90;;;5.08;80.60;98096.41;5216164;28;20299;-60
2021/04/19 05:43:54;;;;;;;21.37;19.27;;;4.20;99.90;;;5.10;80.92;98094.00;5222599;28;20229;-59
2021/04/19 05:46:27;;;;;;;20.90;18.43;;;4.20;99.90;;;5.17;81.17;98093.75;5216889;28;20260;-60
2021/04/19 05:48:59;;;;;;;20.67;18.60;;;4.30;99.90;;;5.14;81.15;98101.09;5222937;28;20282;-62
2021/04/19 05:51:40;;;;;;;21.40;19.10;;;4.40;99.90;;;5.23;81.43;98104.38;5221507;28;20219;-60
2021/04/19 05:54:14;;;;;;;23.20;20.73;;;4.40;99.90;;;5.22;82.03;98110.22;5220024;28;20618;-60
2021/04/19 05:57:16;;;;;;;35.93;26.80;;;4.40;99.90;;;5.24;82.04;98103.63;5217790;28;20220;-60
2021/04/19 06:00:04;;;;;;;31.87;24.73;;;4.50;99.90;;;5.22;82.29;98111.88;5213147;28;20293;-60
2021/04/19 06:03:02;;;;;;;35.43;27.53;;;4.40;99.90;;;5.20;82.50;98114.25;5219430;28;20745;-62
2021/04/19 06:05:40;;;;;;;35.83;26.00;;;4.50;99.90;;;5.22;82.97;98117.81;5217200;28;20200;-61
2021/04/19 06:08:19;;;;;;;33.30;25.77;;;4.50;99.90;;;5.36;83.20;98111.34;5206961;28;20282;-62
2021/04/19 06:10:59;;;;;;;32.27;25.67;;;4.50;99.90;;;5.35;83.55;98113.00;5214532;28;20220;-62
2021/04/19 06:13:34;;;;;;;26.53;23.50;;;4.60;99.90;;;5.36;84.13;98109.69;5225425;28;20201;-60
2021/04/19 06:16:07;;;;;;;25.30;22.23;;;4.60;99.90;;;5.39;84.11;98107.41;5222338;28;20219;-60
2021/04/19 06:18:44;;;;;;;26.57;23.87;;;4.60;99.90;;;5.43;84.49;98109.41;5223138;28;20674;-60
2021/04/19 06:21:17;;;;;;;24.83;21.87;;;4.70;99.90;;;5.49;84.65;98109.00;5214390;28;20199;-61
2021/04/19 06:23:49;;;;;;;26.10;23.30;;;4.70;99.90;;;5.54;84.95;98117.88;5205428;28;20646;-62
2021/04/19 06:26:21;;;;;;;23.97;21.47;;;4.80;99.90;;;5.62;83.95;98110.88;5209667;28;20310;-61
2021/04/19 06:28:53;;;;;;;25.80;21.77;;;4.80;99.90;;;5.59;84.30;98116.59;5209930;28;20200;-58
2021/04/19 06:31:27;;;;;;;25.50;22.90;;;4.80;99.90;;;5.58;84.36;98119.91;5217186;28;20215;-62
2021/04/19 06:34:06;;;;;;;25.90;22.30;;;4.80;99.90;;;5.64;84.68;98114.44;5214848;28;20228;-62
2021/04/19 06:36:42;;;;;;;23.60;21.03;;;4.90;99.90;;;5.63;84.53;98120.25;5213494;28;20220;-62
2021/04/19 06:39:17;;;;;;;26.50;23.57;;;4.80;99.90;;;5.59;84.72;98120.78;5218529;28;20281;-63
2021/04/19 06:41:49;;;;;;;27.80;24.17;;;4.80;99.90;;;5.63;84.94;98117.72;5225771;28;20687;-62
2021/04/19 06:44:23;;;;;;;27.93;23.43;;;4.80;99.90;;;5.62;84.71;98123.56;5226383;28;20200;-61
2021/04/19 06:46:57;;;;;;;26.37;23.23;;;4.80;99.90;;;5.62;84.96;98126.09;5209386;28;20235;-62
2021/04/19 06:49:31;;;;;;;26.37;22.93;;;4.90;99.90;;;5.68;85.11;98120.63;5222194;28;20300;-61
2021/04/19 06:52:04;;;;;;;26.50;22.67;;;4.90;99.90;;;5.74;85.28;98122.00;5222058;28;20300;-62
2021/04/19 06:54:36;;;;;;;31.70;26.53;;;5.00;99.90;;;5.83;85.07;98120.19;5218711;28;20665;-59
2021/04/19 06:57:09;;;;;;;28.87;24.00;;;5.00;99.90;;;5.84;85.03;98114.38;5221973;28;20220;-62
2021/04/19 06:59:44;;;;;;;29.97;25.50;;;5.10;99.90;;;5.90;85.37;98116.50;5217365;28;20284;-61
2021/04/19 07:02:21;;;;;;;26.53;23.67;;;5.10;99.90;;;5.97;84.95;98116.25;5223235;28;20196;-62
2021/04/19 07:04:55;;;;;;;26.23;23.00;;;5.10;99.90;;;6.04;84.21;98112.56;5228349;28;20652;-62
2021/04/19 07:07:36;;;;;;;28.73;24.70;;;5.20;99.90;;;6.01;84.25;98113.22;5223520;28;20223;-61
2021/04/19 07:10:10;;;;;;;26.03;23.20;;;5.20;99.90;;;6.03;84.52;98114.19;5212309;28;20227;-62
2021/04/19 07:12:45;;;;;;;26.67;23.77;;;5.20;99.90;;;6.06;84.67;98116.09;5245768;28;20770;-61
2021/04/19 07:15:20;;;;;;;27.67;23.87;;;5.30;99.90;;;6.12;84.81;98108.94;5225064;28;20196;-61
2021/04/19 07:17:52;;;;;;;25.47;22.77;;;5.40;99.90;;;6.18;84.85;98112.00;5212351;28;20320;-62
2021/04/19 07:20:26;;;;;;;25.13;22.53;;;5.40;99.90;;;6.26;84.96;98105.81;5214606;28;20201;-62
2021/04/19 07:23:00;;;;;;;25.60;22.87;;;5.50;99.90;;;6.37;84.43;98109.19;5208877;28;20288;-62
2021/04/19 07:25:33;;;;;;;26.67;23.20;;;5.60;99.90;;;6.45;84.91;98107.28;5220653;28;20630;-63
2021/04/19 07:28:06;;;;;;;30.50;25.80;;;5.70;99.90;;;6.54;83.98;98107.97;5211724;28;20221;-62
2021/04/19 07:30:38;;;;;;;31.77;25.27;;;5.80;99.90;;;6.61;83.74;98102.59;5217142;28;20218;-60
2021/04/19 07:33:24;;;;;;;29.20;24.53;;;5.80;99.90;;;6.71;83.76;98110.13;5209838;28;20213;-64
2021/04/19 07:35:57;;;;;;;29.13;25.10;;;5.80;99.90;;;6.76;82.97;98111.38;5214786;28;20224;-63
2021/04/19 07:38:36;;;;;;;30.63;24.33;;;5.80;99.90;;;6.66;83.13;98103.81;5213897;28;20225;-64
2021/04/19 07:41:09;;;;;;;27.13;23.03;;;5.80;99.90;;;6.77;83.19;98110.59;5217152;28;20291;-63
2021/04/19 07:43:44;;;;;;;26.50;23.20;;;5.80;99.90;;;6.77;83.07;98113.13;5219485;28;20281;-59
2021/04/19 07:46:18;;;;;;;26.17;23.30;;;5.90;99.90;;;6.85;83.31;98115.38;5215102;28;20252;-62
2021/04/19 07:48:52;;;;;;;29.37;24.27;;;6.10;99.90;;;7.04;83.04;98100.75;5226575;28;20204;-62
2021/04/19 07:51:31;;;;;;;26.23;22.07;;;6.20;99.90;;;7.18;83.07;98107.75;5213876;28;20225;-62
2021/04/19 07:54:20;;;;;;;25.93;23.33;;;6.30;99.90;;;7.38;81.88;98103.22;5215578;28;20209;-62
2021/04/19 07:57:08;;;;;;;26.67;23.17;;;6.50;99.90;;;7.43;81.86;98104.44;5211929;28;20275;-62
2021/04/19 07:59:40;;;;;;;26.80;23.20;;;6.50;99.90;;;7.54;81.93;98103.56;5227572;28;20267;-60
2021/04/19 08:02:18;;;;;;;26.07;23.10;;;6.70;99.90;;;7.68;81.46;98096.94;5221365;28;20256;-58
2021/04/19 08:04:52;;;;;;;26.10;22.37;;;6.80;99.90;;;7.84;80.52;98104.91;5223075;28;20193;-62
2021/04/19 08:07:29;;;;;;;26.43;23.63;;;6.90;99.90;;;8.01;80.17;98103.56;5216655;28;20223;-62
2021/04/19 08:10:06;;;;;;;23.70;21.23;;;7.10;99.90;;;8.19;79.92;98103.06;5226314;28;20482;-62
2021/04/19 08:12:41;;;;;;;24.37;21.73;;;7.30;99.90;;;8.26;79.62;98105.25;5223882;28;20259;-60
2021/04/19 08:15:17;;;;;;;24.13;21.27;;;7.40;99.90;;;8.45;79.38;98110.88;5225277;28;20663;-62
2021/04/19 08:17:49;;;;;;;24.67;21.43;;;7.50;99.90;;;8.55;78.15;98103.06;5207100;28;20305;-61
2021/04/19 08:20:28;;;;;;;24.20;21.00;;;7.50;99.90;;;8.50;78.05;98107.00;5220365;28;20193;-62
2021/04/19 08:23:12;;;;;;;22.53;20.23;;;7.50;99.90;;;8.52;77.91;98110.50;5214895;28;20207;-61
2021/04/19 08:25:48;;;;;;;22.83;20.10;;;7.60;99.90;;;8.58;77.79;98104.97;5216028;28;20716;-61
2021/04/19 08:28:22;;;;;;;24.07;21.47;;;7.60;99.90;;;8.69;78.11;98109.13;5224742;28;20197;-61
2021/04/19 08:30:58;;;;;;;23.17;20.07;;;7.70;99.90;;;8.76;77.59;98101.13;5222735;28;20332;-61
2021/04/19 08:33:33;;;;;;;21.40;19.17;;;7.80;99.90;;;8.78;77.18;98101.22;5223055;28;20211;-62
2021/04/19 08:36:08;;;;;;;24.13;20.83;;;7.80;99.90;;;8.94;76.65;98103.16;5221049;28;20385;-62
2021/04/19 08:38:42;;;;;;;22.53;20.20;;;7.90;99.90;;;9.05;76.16;98112.41;5225232;28;20272;-63
2021/04/19 08:41:16;;;;;;;23.60;20.93;;;7.90;99.90;;;9.00;76.83;98109.53;5243547;28;20616;-60
2021/04/19 08:43:48;;;;;;;22.20;19.93;;;7.90;99.90;;;8.95;76.63;98108.34;5239147;28;20228;-61
2021/04/19 08:46:21;;;;;;;23.87;21.03;;;8.00;99.90;;;9.02;76.66;98107.09;5229066;28;20229;-59
2021/04/19 08:48:53;;;;;;;23.90;21.40;;;8.00;99.90;;;9.15;76.17;98106.25;5218892;28;20636;-59
2021/04/19 08:51:25;;;;;;;22.93;19.87;;;8.10;99.90;;;9.22;75.83;98113.53;5209159;28;20654;-59
2021/04/19 08:53:58;;;;;;;24.53;21.87;;;8.20;99.90;;;9.20;76.41;98109.97;5217543;28;20574;-59
2021/04/19 08:56:30;;;;;;;22.90;20.33;;;8.30;99.90;;;9.20;76.74;98115.09;5216236;28;20229;-60
2021/04/19 08:59:03;;;;;;;23.43;20.93;;;8.30;99.90;;;9.24;76.99;98117.03;5218583;28;20201;-60
2021/04/19 09:01:35;;;;;;;22.93;20.37;;;8.30;99.90;;;9.26;76.46;98115.50;5224664;28;20193;-59
2021/04/19 09:04:09;;;;;;;23.27;20.87;;;8.40;99.90;;;9.26;76.29;98110.38;5210770;28;20193;-60
2021/04/19 09:06:44;;;;;;;22.93;20.63;;;8.40;99.90;;;9.29;75.94;98110.59;5207602;28;20244;-58
2021/04/19 09:09:38;;;;;;;23.10;20.80;;;8.40;99.90;;;9.38;77.05;98118.84;5205822;28;20203;-59
2021/04/19 09:12:29;;;;;;;24.43;20.53;;;8.50;99.90;;;9.50;76.29;98116.22;5219303;28;20253;-59
2021/04/19 09:15:28;;;;;;;23.13;20.80;;;8.60;99.90;;;9.76;75.32;98111.91;5206436;28;20763;-59
2021/04/19 09:18:09;;;;;;;24.03;21.20;;;8.90;99.90;;;9.78;76.43;98113.75;5218521;28;20255;-59
2021/04/19 09:20:50;;;;;;;24.27;20.63;;;8.90;99.90;;;9.97;74.94;98109.84;5219614;28;20201;-59
2021/04/19 09:23:26;;;;;;;22.90;20.50;;;9.00;99.90;;;10.06;75.46;98107.88;5217040;28;20197;-59
2021/04/19 09:26:01;;;;;;;23.53;21.03;;;9.10;99.90;;;10.17;76.30;98116.22;5216516;28;20212;-61
2021/04/19 09:29:00;;;;;;;24.20;21.67;;;9.30;99.90;;;10.32;74.84;98110.41;5212499;28;20633;-59
2021/04/19 09:32:01;;;;;;;22.60;20.23;;;9.40;99.90;;;10.46;75.25;98110.38;5212830;28;20705;-59
2021/04/19 09:34:42;;;;;;;23.43;20.50;;;9.60;99.90;;;10.82;74.58;98115.19;5218022;28;20198;-60
2021/04/19 09:37:18;;;;;;;23.40;20.00;;;9.90;99.90;;;10.93;73.87;98109.81;5216619;28;20627;-59
2021/04/19 09:39:58;;;;;;;24.23;20.73;;;10.00;99.90;;;11.12;73.31;98107.53;5206573;28;20709;-59
2021/04/19 09:43:06;;;;;;;23.00;19.92;;;10.20;99.90;;;11.40;71.99;98117.72;5206897;28;20271;-60
2021/04/19 09:45:57;;;;;;;20.80;18.70;;;10.30;99.90;;;11.49;70.74;98113.13;5222882;28;20239;-59
2021/04/19 09:49:03;;;;;;;21.33;19.15;;;10.40;99.90;;;11.53;71.54;98109.06;5223247;28;20274;-59
2021/04/19 09:51:39;;;;;;;23.35;20.92;;;10.40;99.90;;;11.71;71.66;98109.25;5206158;28;20222;-60
2021/04/19 09:54:13;;;;;;;22.63;20.15;;;10.60;99.90;;;11.69;72.31;98106.56;5217331;28;20299;-60
2021/04/19 09:56:47;;;;;;;23.38;20.65;;;10.70;99.90;;;11.78;70.34;98100.22;5223441;28;20224;-60
2021/04/19 09:59:22;;;;;;;22.60;20.33;;;10.80;99.90;;;11.85;71.13;98103.25;5218698;28;20207;-59
2021/04/19 10:01:58;;;;;;;21.80;19.42;;;10.80;99.90;;;12.00;69.92;98092.97;5213446;28;20215;-59
2021/04/19 10:04:31;;;;;;;22.67;20.38;;;10.80;99.90;;;12.11;70.58;98101.25;5216678;28;20284;-59
2021/04/19 10:07:03;;;;;;;24.55;22.15;;;10.90;99.90;;;12.27;70.48;98103.81;5224985;28;20667;-60
2021/04/19 10:09:42;;;;;;;22.52;20.23;;;11.10;99.90;;;12.40;70.10;98093.44;5212573;28;20253;-59
2021/04/19 10:12:18;;;;;;;29.42;26.60;;;11.20;99.90;;;12.53;68.05;98100.13;5225335;28;20590;-59
2021/04/19 10:14:51;;;;;;;23.58;21.27;;;11.30;99.90;;;12.49;67.90;98090.47;5208946;28;20592;-59
2021/04/19 10:17:27;;;;;;;23.50;21.40;;;11.30;99.90;;;12.59;68.07;98097.88;5223817;28;20578;-59
2021/04/19 10:20:19;;;;;;;23.85;21.48;;;11.40;99.90;;;12.65;67.88;98088.72;5221375;28;20557;-60
2021/04/19 10:23:07;;;;;;;21.08;18.88;;;11.50;99.90;;;12.77;67.05;98086.81;5218725;28;20199;-60
2021/04/19 10:25:47;;;;;;;20.27;18.17;;;11.70;99.90;;;12.89;65.19;98082.31;5215969;28;20208;-59
2021/04/19 10:28:27;;;;;;;21.65;19.55;;;11.80;99.90;;;13.05;64.93;98084.00;5209706;28;20252;-60
2021/04/19 10:31:12;;;;;;;21.55;19.45;;;11.70;99.90;;;13.07;63.51;98083.25;5221325;28;20224;-60
2021/04/19 10:33:47;;;;;;;22.55;20.13;;;11.90;99.90;;;13.13;63.19;98084.34;5217253;28;20227;-60
2021/04/19 10:36:21;;;;;;;22.10;19.92;;;11.90;99.90;;;13.25;61.56;98064.47;5215143;28;20360;-59
2021/04/19 10:38:57;;;;;;;20.17;18.17;;;11.90;99.90;;;13.16;60.79;98076.81;5221431;28;20197;-59
2021/04/19 10:41:30;;;;;;;20.88;18.67;;;11.80;99.90;;;13.03;62.35;98073.63;5217951;28;20196;-59
2021/04/19 10:44:04;;;;;;;19.13;17.35;;;11.80;99.90;;;13.10;61.95;98073.94;5211743;28;20198;-61
2021/04/19 10:46:40;;;;;;;17.40;15.70;;;11.80;99.90;;;13.06;62.05;98071.22;5220058;28;20315;-60
2021/04/19 10:49:24;;;;;;;17.35;15.75;;;11.80;99.90;;;13.07;60.81;98072.09;5211761;28;20214;-59
2021/04/19 10:51:59;;;;;;;22.85;20.58;;;11.90;99.90;;;13.13;59.39;98064.69;5222388;28;20253;-59
2021/04/19 10:54:34;;;;;;;65.15;59.05;;;11.90;99.90;;;13.05;61.77;98066.91;5212062;28;20301;-60